Time;durP1;ratioP1;P1;durP2;ratioP2;P2;SDS_P1;SDS_P2;PMS_P1;PMS_P2;Temp;Humidity;BMP_temperature;BMP_pressure;BME280_temperature;BME280_humidity;BME280_pressure;Samples;Min_cycle;Max_cycle;Signal;HPM_P1;HPM_P2
2021/05/11 00:01:55;;;;;;;2.10;0.70;;;;;;;12.22;90.53;98662.97;2017817;78;29307;-75
2021/05/11 00:04:57;;;;;;;0.60;0.60;;;;;;;12.22;90.66;98649.97;2016974;80;20333;-76
2021/05/11 00:07:59;;;;;;;1.21;0.60;;;;;;;12.23;90.81;98638.66;2017103;80;20209;-75
2021/05/11 00:11:01;;;;;;;3.20;0.60;;;;;;;12.25;90.69;98629.06;2016814;80;20233;-75
2021/05/11 00:14:05;;;;;;;0.96;0.50;;;;;;;12.26;90.61;98632.53;2017138;80;20215;-75
2021/05/11 00:17:06;;;;;;;4.18;0.41;;;;;;;12.29;90.40;98641.13;2019554;78;33487;-75
2021/05/11 00:20:09;;;;;;;1.27;0.66;;;;;;;12.27;90.21;98640.28;2022083;80;20713;-78
2021/05/11 00:23:11;;;;;;;0.96;0.77;;;;;;;12.23;90.07;98641.25;2022859;80;20297;-77
2021/05/11 00:26:12;;;;;;;1.55;0.50;;;;;;;12.17;90.37;98645.72;2021762;80;20167;-77
2021/05/11 00:29:14;;;;;;;1.98;0.60;;;;;;;12.16;90.74;98647.47;2022218;80;20733;-77
2021/05/11 00:32:15;;;;;;;0.60;0.50;;;;;;;12.17;90.65;98640.53;2016437;78;20617;-77
2021/05/11 00:35:17;;;;;;;1.96;0.50;;;;;;;12.16;90.60;98646.63;2016818;80;20520;-77
2021/05/11 00:38:19;;;;;;;0.88;0.50;;;;;;;12.15;90.56;98648.38;2017105;80;20167;-75
2021/05/11 00:41:21;;;;;;;1.14;0.52;;;;;;;12.14;90.54;98653.63;2017062;80;20171;-75
2021/05/11 00:44:27;;;;;;;3.39;1.13;;;;;;;12.11;90.53;98657.16;2016817;80;20231;-76
2021/05/11 00:47:30;;;;;;;2.79;0.60;;;;;;;12.06;90.74;98653.81;2019641;78;20179;-76
2021/05/11 00:50:32;;;;;;;1.91;0.51;;;;;;;12.01;91.08;98632.22;2021921;80;20218;-77
2021/05/11 00:53:35;;;;;;;1.21;0.60;;;;;;;12.06;91.25;98631.25;2021414;80;20197;-77
2021/05/11 00:56:37;;;;;;;2.17;0.54;;;;;;;12.09;91.10;98630.31;2021795;80;20171;-77
2021/05/11 00:59:39;;;;;;;1.30;0.50;;;;;;;12.04;91.22;98609.59;2022322;80;20220;-76
2021/05/11 01:02:41;;;;;;;0.45;0.45;;;;;;;12.08;91.45;98608.63;2015841;78;21307;-77
2021/05/11 01:05:43;;;;;;;0.51;0.40;;;;;;;12.14;91.36;98609.38;2016729;80;20727;-75
2021/05/11 01:08:45;;;;;;;1.29;0.60;;;;;;;12.13;91.06;98605.91;2016227;80;20187;-75
2021/05/11 01:11:46;;;;;;;1.16;0.50;;;;;;;12.11;91.25;98605.09;2016263;80;20196;-76
2021/05/11 01:14:48;;;;;;;0.75;0.45;;;;;;;12.13;91.01;98599.84;2013399;80;20203;-76
2021/05/11 01:17:55;;;;;;;1.81;0.50;;;;;;;12.11;91.08;98594.69;2020383;78;21407;-75
2021/05/11 01:21:02;;;;;;;1.11;0.44;;;;;;;12.10;91.07;98583.44;2025218;80;20167;-76
2021/05/11 01:53:34;;;;;;;2.51;0.51;;;;;;;11.99;91.45;98605.38;2017397;80;20694;-77
2021/05/11 02:23:01;;;;;;;0.84;0.76;;;;;;;11.95;91.99;98637.56;2016998;80;20201;-78
2021/05/11 02:26:04;;;;;;;0.73;0.73;;;;;;;11.93;91.85;98637.59;2014043;80;20200;-77
2021/05/11 02:29:06;;;;;;;1.33;0.86;;;;;;;11.93;91.89;98635.00;2013927;80;20190;-77
2021/05/11 02:32:08;;;;;;;0.90;0.85;;;;;;;11.91;92.00;98634.19;2020172;77;20568;-78
2021/05/11 02:35:12;;;;;;;4.19;0.91;;;;;;;11.92;92.16;98624.63;2023565;80;20246;-77
2021/05/11 02:38:14;;;;;;;1.83;1.08;;;;;;;11.92;92.13;98609.00;2023618;80;20203;-78
2021/05/11 02:41:15;;;;;;;1.10;0.98;;;;;;;11.94;92.18;98596.81;2020001;80;20178;-77
2021/05/11 02:44:19;;;;;;;0.88;0.88;;;;;;;11.98;92.14;98594.13;2023768;80;20736;-77
2021/05/11 02:47:21;;;;;;;1.98;0.93;;;;;;;11.91;91.74;98596.91;2023281;78;24998;-76
2021/05/11 02:50:28;;;;;;;3.61;1.10;;;;;;;11.89;91.96;98594.34;2024050;80;20850;-75
2021/05/11 02:53:30;;;;;;;1.31;1.00;;;;;;;11.91;91.96;98596.91;2023922;80;20175;-75
2021/05/11 02:56:31;;;;;;;1.89;0.96;;;;;;;11.90;91.77;98596.03;2023916;80;20190;-75
2021/05/11 02:59:33;;;;;;;1.55;0.96;;;;;;;11.88;91.74;98595.22;2024363;80;20183;-75
2021/05/11 03:02:35;;;;;;;2.56;1.25;;;;;;;11.83;91.63;98589.25;2017272;78;21109;-75
2021/05/11 03:05:37;;;;;;;1.95;1.21;;;;;;;11.85;91.73;98578.81;2018002;80;20203;-75
2021/05/11 03:08:42;;;;;;;1.00;1.00;;;;;;;11.84;91.63;98575.34;2017366;80;20180;-75
2021/05/11 03:11:44;;;;;;;1.58;1.21;;;;;;;11.84;91.73;98575.34;2017165;80;20175;-76
2021/05/11 03:14:46;;;;;;;1.96;1.02;;;;;;;11.82;91.61;98586.69;2016856;80;20199;-75
2021/05/11 03:17:47;;;;;;;1.38;1.27;;;;;;;11.82;91.64;98586.69;2020946;78;21760;-74
2021/05/11 03:20:49;;;;;;;2.96;1.24;;;;;;;11.78;91.35;98589.34;2022374;80;20191;-77
2021/05/11 03:23:51;;;;;;;1.55;1.45;;;;;;;11.78;91.49;98580.66;2022363;80;20183;-74
2021/05/11 03:26:53;;;;;;;1.17;1.16;;;;;;;11.78;91.45;98583.28;2021888;80;20171;-74
2021/05/11 03:29:54;;;;;;;2.10;1.60;;;;;;;11.78;91.61;98570.28;2022383;80;20183;-75
2021/05/11 03:32:56;;;;;;;1.50;1.40;;;;;;;11.82;91.54;98571.06;2016564;77;26341;-74
2021/05/11 03:35:57;;;;;;;1.70;1.50;;;;;;;11.83;91.49;98584.06;2020337;80;20197;-74
2021/05/11 03:39:03;;;;;;;1.89;1.61;;;;;;;11.80;91.45;98573.72;2017291;80;20205;-74
2021/05/11 03:42:14;;;;;;;1.49;1.39;;;;;;;11.80;91.38;98565.91;2017419;80;20292;-75
2021/05/11 03:45:17;;;;;;;1.67;1.58;;;;;;;11.79;91.32;98564.22;2016543;78;20795;-75
2021/05/11 03:48:19;;;;;;;1.84;1.74;;;;;;;11.73;91.17;98559.13;2022606;80;20163;-77
2021/05/11 03:51:22;;;;;;;1.80;1.70;;;;;;;11.71;91.61;98550.50;2022132;80;20224;-76
2021/05/11 03:54:25;;;;;;;2.15;1.94;;;;;;;11.73;91.84;98540.91;2022018;80;20228;-75
2021/05/11 03:57:27;;;;;;;1.79;1.69;;;;;;;11.74;91.97;98538.28;2022358;80;20234;-74
2021/05/11 04:00:30;;;;;;;2.65;1.58;;;;;;;11.76;92.08;98535.63;2020791;78;20214;-74
2021/05/11 04:03:33;;;;;;;2.30;2.10;;;;;;;11.77;92.12;98524.34;2022705;80;20194;-75
2021/05/11 04:06:35;;;;;;;2.00;1.80;;;;;;;11.77;91.96;98534.75;2021835;80;20709;-76
2021/05/11 04:09:45;;;;;;;4.35;1.86;;;;;;;11.78;92.01;98555.56;2021958;80;20191;-76
2021/05/11 04:13:07;;;;;;;2.10;2.00;;;;;;;11.78;91.91;98552.94;2022307;80;20247;-76
2021/05/11 04:16:23;;;;;;;2.40;2.29;;;;;;;11.78;92.07;98536.47;2023914;78;20218;-75
2021/05/11 04:19:25;;;;;;;2.28;2.17;;;;;;;11.81;91.88;98549.41;2022529;80;20677;-75
2021/05/11 04:22:28;;;;;;;2.64;2.44;;;;;;;11.81;92.04;98549.41;2022520;80;20155;-75
2021/05/11 04:25:30;;;;;;;4.54;2.36;;;;;;;11.79;92.15;98533.84;2022037;80;20191;-75
2021/05/11 04:28:33;;;;;;;2.99;2.42;;;;;;;11.80;92.40;98532.97;2022925;80;20320;-75
2021/05/11 04:31:37;;;;;;;2.49;2.20;;;;;;;11.85;92.35;98527.69;2018716;80;21078;-76
2021/05/11 04:34:40;;;;;;;3.29;2.58;;;;;;;11.87;92.25;98528.50;2016904;80;20192;-75
2021/05/11 04:37:43;;;;;;;2.72;2.53;;;;;;;11.87;92.27;98544.09;2017047;80;20211;-75
2021/05/11 04:40:46;;;;;;;2.49;2.29;;;;;;;11.88;92.28;98545.81;2016879;80;20172;-74
2021/05/11 04:43:49;;;;;;;2.66;2.46;;;;;;;11.88;92.19;98551.00;2020697;80;20188;-74
2021/05/11 04:46:59;;;;;;;2.85;2.65;;;;;;;11.89;92.18;98550.13;2019396;77;20217;-75
2021/05/11 04:50:02;;;;;;;3.10;2.90;;;;;;;11.89;92.07;98544.91;2022623;80;20155;-75
2021/05/11 04:53:05;;;;;;;2.72;2.53;;;;;;;11.88;91.99;98538.00;2022048;80;20696;-76
2021/05/11 04:56:08;;;;;;;3.28;2.42;;;;;;;11.86;92.08;98534.59;2022235;80;20209;-77
2021/05/11 04:59:10;;;;;;;2.76;2.65;;;;;;;11.86;92.28;98536.34;2022521;80;20848;-75
2021/05/11 05:02:13;;;;;;;3.60;2.41;;;;;;;11.83;92.37;98525.97;2016701;78;22391;-76
2021/05/11 05:05:16;;;;;;;2.86;2.61;;;;;;;11.86;92.65;98528.53;2016939;80;20205;-76
2021/05/11 05:08:18;;;;;;;3.76;2.81;;;;;;;11.87;92.85;98525.88;2015848;80;20191;-76
2021/05/11 05:11:21;;;;;;;2.70;2.59;;;;;;;11.91;93.02;98524.06;2013372;80;20193;-75
2021/05/11 05:14:24;;;;;;;2.91;2.71;;;;;;;11.94;92.77;98530.03;2017382;80;20249;-75
2021/05/11 05:17:26;;;;;;;3.10;2.80;;;;;;;11.95;92.66;98518.75;2016866;78;20195;-76
2021/05/11 05:20:29;;;;;;;2.71;2.51;;;;;;;11.98;92.48;98515.22;2017943;80;20918;-75
2021/05/11 05:23:43;;;;;;;2.96;2.78;;;;;;;12.01;92.47;98515.97;2016032;80;20167;-75
2021/05/11 05:26:50;;;;;;;3.56;3.26;;;;;;;12.05;92.65;98530.66;2017601;80;20189;-75
2021/05/11 05:29:53;;;;;;;4.03;3.08;;;;;;;12.09;92.53;98523.63;2017070;80;21011;-75
2021/05/11 05:33:00;;;;;;;3.58;3.35;;;;;;;12.14;92.63;98520.91;2022018;77;22336;-75
2021/05/11 05:36:04;;;;;;;3.66;3.36;;;;;;;12.23;92.81;98528.50;2022210;80;20233;-74
2021/05/11 05:39:07;;;;;;;3.08;2.88;;;;;;;12.33;92.57;98527.34;2024026;80;20212;-76
2021/05/11 05:42:10;;;;;;;3.60;3.30;;;;;;;12.36;92.07;98522.06;2023226;80;20176;-75
2021/05/11 05:45:13;;;;;;;3.94;3.38;;;;;;;12.42;91.99;98527.13;2021859;80;44314;-74
2021/05/11 05:48:16;;;;;;;4.07;3.70;;;;;;;12.46;91.85;98510.53;2016936;80;20654;-75
2021/05/11 05:51:20;;;;;;;4.00;3.40;;;;;;;12.51;91.75;98503.44;2017754;80;20164;-74
2021/05/11 05:54:22;;;;;;;7.45;3.42;;;;;;;12.59;91.69;98504.09;2017146;80;20223;-75
2021/05/11 05:57:25;;;;;;;5.76;3.75;;;;;;;12.75;91.44;98495.84;2016676;80;20201;-74
2021/05/11 06:00:27;;;;;;;5.99;3.84;;;;;;;12.85;91.20;98506.00;2016313;80;20205;-74
2021/05/11 06:03:51;;;;;;;4.56;3.40;;;;;;;12.93;90.91;98501.44;2017505;80;20179;-74
2021/05/11 06:06:53;;;;;;;3.78;3.41;;;;;;;12.95;90.49;98511.81;2017468;80;20217;-74
2021/05/11 06:09:56;;;;;;;4.13;3.66;;;;;;;12.92;89.57;98514.47;2016722;80;20180;-74
2021/05/11 06:13:13;;;;;;;5.29;3.76;;;;;;;12.92;89.34;98527.50;2016694;80;20233;-75
2021/05/11 06:19:37;;;;;;;4.16;3.30;;;;;;;12.82;89.45;98520.84;2022835;80;20853;-75
2021/05/11 06:22:40;;;;;;;3.75;3.45;;;;;;;12.80;89.56;98535.69;2022115;80;20159;-75
2021/05/11 06:25:45;;;;;;;6.10;3.79;;;;;;;12.84;89.73;98532.94;2020101;80;20207;-76
2021/05/11 06:28:47;;;;;;;5.06;3.85;;;;;;;12.89;89.66;98536.25;2020755;80;20175;-75
2021/05/11 06:31:50;;;;;;;3.78;3.33;;;;;;;12.91;89.58;98544.88;2018759;78;23093;-76
2021/05/11 06:35:03;;;;;;;4.30;3.30;;;;;;;12.90;89.47;98548.41;2016896;80;20221;-76
2021/05/11 06:38:05;;;;;;;4.53;3.65;;;;;;;12.89;89.32;98533.66;2017234;80;20737;-77
2021/05/11 06:41:09;;;;;;;3.64;3.30;;;;;;;12.91;89.26;98529.25;2016179;80;20898;-76
2021/05/11 06:44:29;;;;;;;5.69;3.69;;;;;;;12.97;89.46;98531.72;2016650;80;20205;-74
2021/05/11 06:47:57;;;;;;;8.79;4.00;;;;;;;13.09;89.44;98535.72;2020345;77;21249;-74
2021/05/11 06:54:05;;;;;;;2.91;2.60;;;;;;;13.38;88.41;98524.47;2022429;80;20767;-75
2021/05/11 06:57:08;;;;;;;2.66;2.41;;;;;;;13.49;87.16;98514.59;2022172;80;20231;-75
2021/05/11 07:00:11;;;;;;;2.92;2.06;;;;;;;13.55;86.04;98510.94;2021126;80;20792;-75
2021/05/11 07:03:14;;;;;;;2.47;2.20;;;;;;;13.74;85.82;98508.63;2017049;78;22435;-75
2021/05/11 07:06:18;;;;;;;4.24;2.26;;;;;;;13.84;85.88;98510.91;2017770;80;20160;-75
2021/05/11 07:10:11;;;;;;;3.30;2.31;;;;;;;13.85;84.93;98499.56;2017557;80;20217;-76
2021/05/11 07:16:06;;;;;;;5.00;2.38;;;;;;;13.82;84.23;98494.44;2016945;78;20224;-73
2021/05/11 07:19:08;;;;;;;2.83;1.92;;;;;;;13.87;83.64;98474.25;2022154;80;20167;-73
2021/05/11 07:22:11;;;;;;;4.11;2.10;;;;;;;13.99;84.03;98459.94;2022149;80;20816;-73
2021/05/11 07:25:14;;;;;;;2.89;1.99;;;;;;;14.14;83.77;98454.22;2022345;80;20216;-74
2021/05/11 07:28:33;;;;;;;4.24;1.86;;;;;;;14.47;83.44;98459.22;2021138;80;20174;-74
2021/05/11 07:31:38;;;;;;;6.03;2.65;;;;;;;14.70;81.63;98459.25;2018761;80;25375;-74
2021/05/11 07:34:45;;;;;;;3.10;2.00;;;;;;;14.87;80.56;98465.63;2017305;80;20180;-74
2021/05/11 07:37:49;;;;;;;1.24;1.14;;;;;;;14.99;79.61;98476.50;2016763;80;20296;-74
2021/05/11 07:40:52;;;;;;;3.21;1.10;;;;;;;14.90;76.78;98481.19;2016737;80;20197;-74
2021/05/11 07:43:57;;;;;;;1.38;1.27;;;;;;;14.86;76.20;98477.00;2012933;80;20235;-76
2021/05/11 08:16:46;;;;;;;3.33;0.80;;;;;;;14.66;79.24;98472.47;2016916;78;20205;-76
2021/05/11 08:27:27;;;;;;;0.95;0.80;;;;;;;14.76;78.79;98485.19;2022568;80;20733;-76
2021/05/11 08:29:39;;;;;;;1.74;0.90;;;;;;;15.35;77.96;98481.25;2023517;80;20410;-76
2021/05/11 08:32:42;;;;;;;0.80;0.75;;;;;;;15.50;77.01;98474.56;2016527;78;20199;-76
2021/05/11 08:35:44;;;;;;;1.44;1.05;;;;;;;15.52;75.29;98470.13;2017020;80;20288;-76
2021/05/11 08:38:47;;;;;;;1.24;0.77;;;;;;;15.42;73.89;98465.25;2017262;80;20618;-75
2021/05/11 08:41:50;;;;;;;0.70;0.70;;;;;;;15.45;75.00;98473.91;2016917;80;20359;-76
2021/05/11 08:44:52;;;;;;;1.10;0.70;;;;;;;15.41;73.75;98471.38;2017518;80;20889;-76
2021/05/11 08:47:55;;;;;;;0.51;0.51;;;;;;;15.40;73.28;98477.53;2015727;78;50090;-75
2021/05/11 08:54:34;;;;;;;1.76;0.80;;;;;;;15.30;72.78;98480.59;2017308;80;20160;-76
2021/05/11 09:28:11;;;;;;;1.63;0.68;;;;;;;14.37;81.34;98516.13;2016366;80;20265;-77
2021/05/11 09:34:46;;;;;;;1.84;0.71;;;;;;;14.23;82.71;98520.94;2021948;80;20856;-78
2021/05/11 09:58:06;;;;;;;1.30;0.70;;;;;;;13.99;83.12;98527.81;2010095;80;20259;-77
2021/05/11 10:49:48;;;;;;;3.75;1.89;;;;;;;14.20;82.95;98539.34;2010805;80;20176;-77
2021/05/11 10:53:30;;;;;;;7.09;2.34;;;;;;;14.31;84.47;98550.25;2017007;80;20191;-77
2021/05/11 10:56:34;;;;;;;7.07;2.81;;;;;;;14.45;84.39;98555.91;2014121;80;20208;-77
2021/05/11 10:59:44;;;;;;;2.60;1.85;;;;;;;14.60;83.80;98556.31;2016558;80;20306;-77
2021/05/11 11:03:13;;;;;;;2.63;2.15;;;;;;;14.69;83.70;98564.66;2021189;77;21772;-76
2021/05/11 11:06:17;;;;;;;2.72;1.99;;;;;;;14.72;82.63;98559.38;2022242;80;20187;-77
2021/05/11 11:09:19;;;;;;;2.64;1.71;;;;;;;14.71;81.02;98564.63;2021926;80;20571;-77
2021/05/11 11:12:22;;;;;;;1.94;1.40;;;;;;;14.62;80.63;98573.63;2022622;80;20179;-77
2021/05/11 11:15:25;;;;;;;2.64;1.63;;;;;;;14.51;79.82;98573.13;2020181;78;27431;-77
2021/05/11 11:18:28;;;;;;;2.17;1.35;;;;;;;14.41;80.59;98569.97;2017152;80;20171;-77
2021/05/11 11:24:54;;;;;;;3.28;1.20;;;;;;;14.31;81.25;98575.53;2017163;80;20308;-78
2021/05/11 11:27:57;;;;;;;5.11;1.15;;;;;;;14.18;81.68;98568.09;2017017;80;20368;-78
2021/05/11 11:31:00;;;;;;;3.03;1.39;;;;;;;14.12;82.53;98580.47;2018251;77;23600;-78
2021/05/11 11:34:24;;;;;;;3.64;1.27;;;;;;;14.08;83.05;98584.94;2022376;80;20212;-77
2021/05/11 11:37:29;;;;;;;2.85;0.90;;;;;;;14.14;83.85;98581.28;2024977;80;20777;-77
2021/05/11 11:40:31;;;;;;;1.44;0.81;;;;;;;14.13;83.95;98571.75;2021658;80;20163;-77
2021/05/11 11:43:34;;;;;;;0.80;0.80;;;;;;;14.15;83.32;98583.00;2022251;80;20230;-76
2021/05/11 11:46:37;;;;;;;3.91;1.44;;;;;;;14.23;83.78;98586.22;2018578;78;21595;-77
2021/05/11 11:49:45;;;;;;;2.56;0.70;;;;;;;14.29;83.70;98590.38;2016835;80;20236;-76
2021/05/11 11:59:14;;;;;;;1.48;0.90;;;;;;;14.63;81.24;98584.94;2016134;80;20268;-77
2021/05/11 12:02:16;;;;;;;1.60;1.21;;;;;;;14.73;81.51;98555.00;2019755;78;22847;-76
2021/05/11 12:05:21;;;;;;;0.80;0.77;;;;;;;14.67;80.00;98537.75;2021973;80;20191;-77
2021/05/11 12:08:29;;;;;;;1.11;0.73;;;;;;;14.77;80.83;98533.91;2022383;80;20196;-77
2021/05/11 12:11:34;;;;;;;1.15;0.61;;;;;;;15.17;82.29;98549.94;2021883;80;20167;-76
2021/05/11 12:14:38;;;;;;;2.71;0.76;;;;;;;15.49;81.05;98569.69;2022521;80;20197;-76
2021/05/11 12:17:45;;;;;;;1.44;0.50;;;;;;;15.58;77.14;98570.16;2022067;77;24796;-76
2021/05/11 12:20:59;;;;;;;1.29;0.68;;;;;;;15.61;75.11;98582.31;2021730;80;20159;-76
2021/05/11 12:24:07;;;;;;;0.74;0.50;;;;;;;15.57;75.85;98571.09;2022750;80;20295;-76
2021/05/11 12:27:19;;;;;;;6.49;0.94;;;;;;;15.55;76.56;98580.75;2022165;80;20782;-76
2021/05/11 12:30:35;;;;;;;0.64;0.64;;;;;;;15.73;77.83;98592.34;2021110;78;22485;-74
2021/05/11 12:33:40;;;;;;;0.73;0.64;;;;;;;15.80;78.35;98582.47;2017331;80;20229;-74
2021/05/11 12:36:50;;;;;;;1.11;0.60;;;;;;;15.78;75.98;98571.19;2016581;80;20376;-75
2021/05/11 12:39:55;;;;;;;1.88;0.57;;;;;;;15.92;76.00;98550.59;2017095;80;20229;-74
2021/05/11 12:43:02;;;;;;;0.60;0.60;;;;;;;16.11;77.09;98548.09;2017317;80;20172;-75
2021/05/11 12:46:15;;;;;;;0.98;0.70;;;;;;;16.09;76.19;98555.16;2017888;78;21592;-75
2021/05/11 12:49:20;;;;;;;3.33;0.60;;;;;;;16.14;74.91;98555.81;2021436;80;20191;-75
2021/05/11 12:52:29;;;;;;;1.34;0.70;;;;;;;16.22;74.65;98549.38;2021592;80;20796;-75
2021/05/11 12:56:28;;;;;;;1.01;0.57;;;;;;;16.31;74.14;98555.97;2021658;80;20758;-75
2021/05/11 12:59:12;;;;;;;1.79;0.52;;;;;;;16.20;73.76;98561.69;2020057;80;20190;-75
2021/05/11 13:28:32;;;;;;;0.70;0.60;;;;;;;15.09;78.30;98545.00;2020533;80;20216;-75
2021/05/11 13:31:40;;;;;;;1.94;0.52;;;;;;;15.05;78.20;98548.59;2017806;79;25255;-75
2021/05/11 13:34:43;;;;;;;0.61;0.56;;;;;;;15.07;77.78;98545.03;2017340;80;20302;-75
2021/05/11 13:37:46;;;;;;;0.84;0.50;;;;;;;15.11;77.93;98553.63;2016315;80;20275;-75
2021/05/11 13:40:50;;;;;;;0.88;0.50;;;;;;;15.10;78.87;98559.78;2017029;80;20372;-74
2021/05/11 13:43:53;;;;;;;3.41;0.70;;;;;;;15.07;77.86;98557.25;2016674;80;20500;-75
2021/05/11 13:46:56;;;;;;;0.50;0.50;;;;;;;15.03;78.40;98568.72;2019032;78;20574;-75
2021/05/11 13:50:02;;;;;;;0.59;0.50;;;;;;;14.98;78.74;98570.66;2021727;80;20179;-75
2021/05/11 13:53:05;;;;;;;0.73;0.46;;;;;;;14.95;79.13;98576.84;2021911;80;20695;-75
2021/05/11 14:02:55;;;;;;;1.36;0.41;;;;;;;15.05;78.50;98582.59;2016392;78;21630;-75
2021/05/11 14:05:58;;;;;;;1.02;0.50;;;;;;;15.20;79.33;98587.28;2022844;80;20289;-74
2021/05/11 14:09:00;;;;;;;1.46;0.80;;;;;;;15.35;77.39;98586.72;2022400;80;20175;-74
2021/05/11 14:12:04;;;;;;;2.05;0.50;;;;;;;15.46;76.59;98588.97;2022859;80;20155;-75
2021/05/11 14:15:07;;;;;;;0.63;0.47;;;;;;;15.67;78.09;98598.66;2023009;80;20312;-74
2021/05/11 14:18:10;;;;;;;0.85;0.40;;;;;;;15.88;75.95;98590.91;2017078;78;23137;-74
2021/05/11 14:21:13;;;;;;;0.60;0.40;;;;;;;15.97;74.19;98590.53;2017428;80;20771;-74
2021/05/11 14:24:16;;;;;;;1.35;0.47;;;;;;;16.00;74.55;98593.91;2016955;80;20310;-74
2021/05/11 14:27:19;;;;;;;0.40;0.40;;;;;;;16.10;74.47;98591.75;2017647;80;20218;-74
2021/05/11 14:30:22;;;;;;;0.50;0.30;;;;;;;16.12;74.10;98586.44;2016648;78;20229;-75
2021/05/11 14:33:25;;;;;;;0.40;0.31;;;;;;;16.11;71.68;98584.75;2026324;80;20194;-74
2021/05/11 14:36:28;;;;;;;2.16;0.50;;;;;;;16.06;70.32;98582.31;2022055;80;20278;-75
2021/05/11 14:39:31;;;;;;;0.64;0.40;;;;;;;15.99;71.07;98581.72;2022662;80;20211;-74
2021/05/11 14:42:34;;;;;;;0.73;0.51;;;;;;;15.95;71.63;98579.25;2022850;80;20189;-75
2021/05/11 14:45:36;;;;;;;1.75;0.54;;;;;;;15.80;72.23;98585.09;2020233;78;20930;-74
2021/05/11 14:48:39;;;;;;;4.49;0.57;;;;;;;15.58;73.41;98585.03;2017459;80;20200;-75
2021/05/11 14:51:42;;;;;;;1.94;0.71;;;;;;;15.32;74.41;98579.00;2016935;80;20217;-74
2021/05/11 14:54:45;;;;;;;0.54;0.40;;;;;;;15.14;75.68;98586.66;2016729;80;20184;-74
2021/05/11 14:57:48;;;;;;;4.55;0.41;;;;;;;14.97;76.84;98592.47;2016980;80;20203;-73
2021/05/11 15:00:50;;;;;;;0.80;0.40;;;;;;;14.78;78.22;98593.13;2017349;78;21538;-75
2021/05/11 15:03:53;;;;;;;0.79;0.40;;;;;;;14.59;78.60;98591.19;2022328;80;20159;-74
2021/05/11 15:07:03;;;;;;;1.86;0.70;;;;;;;14.46;79.49;98588.13;2021697;80;20373;-75
2021/05/11 15:10:07;;;;;;;0.70;0.50;;;;;;;14.34;80.31;98591.09;2021822;80;20277;-75
2021/05/11 15:13:10;;;;;;;2.75;0.82;;;;;;;14.21;81.09;98593.25;2022365;80;20240;-74
2021/05/11 15:16:20;;;;;;;1.35;0.40;;;;;;;14.18;81.92;98595.94;2018518;77;20820;-75
2021/05/11 15:19:23;;;;;;;0.75;0.30;;;;;;;14.08;83.18;98595.41;2016982;80;20179;-75
2021/05/11 15:22:27;;;;;;;1.15;0.50;;;;;;;14.14;83.80;98583.88;2016356;80;20207;-75
2021/05/11 15:25:30;;;;;;;1.75;0.49;;;;;;;14.14;83.99;98594.34;2016769;80;20211;-75
2021/05/11 15:28:34;;;;;;;2.54;0.60;;;;;;;14.16;84.76;98600.34;2016460;80;20197;-75
2021/05/11 15:31:37;;;;;;;2.70;0.85;;;;;;;14.18;84.83;98606.38;2018318;78;23631;-75
2021/05/11 15:34:40;;;;;;;1.11;0.50;;;;;;;14.11;84.96;98605.72;2019946;80;20244;-75
2021/05/11 15:37:45;;;;;;;1.83;0.60;;;;;;;14.14;85.83;98608.25;2022210;80;20175;-76
2021/05/11 15:40:48;;;;;;;3.30;0.56;;;;;;;14.26;85.68;98614.00;2022456;80;20771;-75
2021/05/11 15:43:50;;;;;;;3.64;0.50;;;;;;;14.33;85.83;98610.28;2022163;80;20214;-73
2021/05/11 15:46:53;;;;;;;2.08;0.59;;;;;;;14.39;85.14;98624.00;2021091;78;40864;-73
2021/05/11 15:49:56;;;;;;;1.02;0.50;;;;;;;14.50;84.69;98621.06;2022244;80;20698;-75
2021/05/11 15:53:02;;;;;;;0.86;0.51;;;;;;;14.53;83.48;98610.50;2021988;80;20175;-75
2021/05/11 15:56:04;;;;;;;0.73;0.60;;;;;;;14.69;84.04;98609.09;2022255;80;20237;-74
2021/05/11 15:59:08;;;;;;;3.30;0.80;;;;;;;14.77;83.47;98617.53;2022019;80;20179;-74
2021/05/11 16:02:11;;;;;;;0.79;0.52;;;;;;;14.81;82.84;98611.31;2016960;77;22172;-74
2021/05/11 16:05:16;;;;;;;1.81;0.94;;;;;;;14.81;81.41;98620.91;2016612;80;20183;-74
2021/05/11 16:08:19;;;;;;;1.45;0.60;;;;;;;14.87;81.20;98612.84;2016214;80;20194;-75
2021/05/11 16:11:22;;;;;;;1.38;0.70;;;;;;;14.90;81.30;98612.75;2016891;80;20207;-75
2021/05/11 16:14:24;;;;;;;1.30;0.69;;;;;;;14.85;81.13;98616.41;2016265;80;20268;-75
2021/05/11 16:17:28;;;;;;;0.64;0.64;;;;;;;14.81;81.69;98613.91;2019669;78;22302;-75
2021/05/11 16:20:32;;;;;;;0.99;0.65;;;;;;;14.80;81.24;98617.44;2022307;80;20266;-75
2021/05/11 16:23:35;;;;;;;1.69;0.71;;;;;;;14.70;80.83;98613.41;2021812;80;20339;-75
2021/05/11 16:26:38;;;;;;;4.11;0.60;;;;;;;14.70;81.75;98609.94;2022372;80;20175;-76
2021/05/11 16:29:40;;;;;;;1.48;0.69;;;;;;;14.65;82.33;98620.56;2021937;80;20896;-75
2021/05/11 16:32:47;;;;;;;1.21;0.70;;;;;;;14.55;82.95;98616.56;2016344;78;22240;-75
2021/05/11 16:35:49;;;;;;;2.51;0.59;;;;;;;14.49;83.59;98614.97;2016528;80;20191;-75
2021/05/11 16:38:52;;;;;;;3.45;0.90;;;;;;;14.46;83.72;98620.31;2016563;80;20702;-75
2021/05/11 16:41:55;;;;;;;1.21;0.59;;;;;;;14.40;83.70;98622.25;2016571;80;20176;-75
2021/05/11 16:44:58;;;;;;;2.20;0.80;;;;;;;14.37;84.15;98628.44;2017515;80;20179;-75
2021/05/11 16:48:01;;;;;;;2.83;0.65;;;;;;;14.31;84.81;98630.34;2010932;78;20188;-75
2021/05/11 16:51:05;;;;;;;1.96;0.70;;;;;;;14.32;84.72;98640.75;2012304;80;20724;-75
2021/05/11 16:54:07;;;;;;;2.04;0.80;;;;;;;14.31;84.50;98636.44;2011754;80;20168;-75
2021/05/11 16:57:10;;;;;;;1.61;0.80;;;;;;;14.26;84.67;98632.28;2011640;80;20282;-75
2021/05/11 17:00:14;;;;;;;2.26;0.59;;;;;;;14.28;84.68;98636.53;2012012;80;20770;-75
2021/05/11 17:03:18;;;;;;;2.09;0.60;;;;;;;14.29;84.89;98635.63;2021161;78;21882;-75
2021/05/11 17:06:21;;;;;;;2.17;0.61;;;;;;;14.30;84.75;98631.25;2022218;80;20195;-75
2021/05/11 17:09:23;;;;;;;1.31;0.47;;;;;;;14.32;84.38;98630.31;2021964;80;20183;-75
2021/05/11 17:12:26;;;;;;;0.44;0.35;;;;;;;14.31;83.34;98636.44;2022751;80;20198;-76
2021/05/11 17:15:31;;;;;;;0.95;0.40;;;;;;;14.35;83.23;98638.03;2019229;78;20951;-75
2021/05/11 17:18:34;;;;;;;4.04;0.57;;;;;;;14.40;82.82;98637.91;2016504;80;20241;-75
2021/05/11 17:21:37;;;;;;;1.23;0.40;;;;;;;14.40;82.00;98644.00;2016242;80;20217;-75
2021/05/11 17:24:40;;;;;;;5.22;0.43;;;;;;;14.34;81.54;98645.94;2016481;80;20829;-76
2021/05/11 17:27:44;;;;;;;2.53;0.70;;;;;;;14.29;81.52;98647.84;2016932;80;20307;-75
2021/05/11 17:30:54;;;;;;;1.48;0.60;;;;;;;14.20;82.24;98654.22;2017688;77;20242;-76
2021/05/11 17:33:57;;;;;;;1.33;0.45;;;;;;;14.15;82.70;98653.47;2021943;80;20204;-75
2021/05/11 17:37:00;;;;;;;1.65;0.50;;;;;;;14.12;83.04;98666.63;2021733;80;20179;-75
2021/05/11 17:40:06;;;;;;;2.10;0.73;;;;;;;14.07;82.73;98665.94;2021731;80;20192;-75
2021/05/11 17:43:09;;;;;;;2.96;0.54;;;;;;;13.99;82.63;98665.28;2022874;80;20255;-75
2021/05/11 17:46:11;;;;;;;0.51;0.40;;;;;;;13.93;82.98;98673.31;2019444;78;21354;-73
2021/05/11 17:49:14;;;;;;;2.41;0.70;;;;;;;13.89;83.02;98675.16;2017693;80;20223;-73
2021/05/11 17:52:17;;;;;;;2.13;0.59;;;;;;;13.85;83.23;98678.75;2016912;80;20658;-74
2021/05/11 17:55:20;;;;;;;0.86;0.47;;;;;;;13.77;84.16;98678.97;2016219;80;20229;-75
2021/05/11 17:58:23;;;;;;;1.77;0.50;;;;;;;13.71;84.63;98686.13;2016427;80;20171;-74
2021/05/11 18:01:27;;;;;;;1.08;0.47;;;;;;;13.66;84.61;98688.88;2015402;77;22500;-73
2021/05/11 18:04:30;;;;;;;2.16;0.73;;;;;;;13.67;84.87;98684.50;2017494;80;20191;-74
2021/05/11 18:07:33;;;;;;;1.88;0.50;;;;;;;13.63;84.48;98675.88;2017380;80;20180;-76
2021/05/11 18:10:36;;;;;;;2.85;0.60;;;;;;;13.63;84.59;98686.31;2016675;80;20180;-76
2021/05/11 18:13:39;;;;;;;1.20;0.54;;;;;;;13.61;84.53;98699.41;2017267;80;20205;-75
2021/05/11 18:16:42;;;;;;;4.15;0.60;;;;;;;13.60;85.01;98707.28;2018974;78;26285;-76
2021/05/11 18:19:45;;;;;;;1.99;0.60;;;;;;;13.57;85.57;98718.66;2023132;80;20236;-75
2021/05/11 18:22:49;;;;;;;5.28;0.63;;;;;;;13.54;85.75;98720.50;2022411;80;20312;-75
2021/05/11 18:25:52;;;;;;;4.39;0.47;;;;;;;13.49;84.95;98727.59;2022327;80;20344;-77
2021/05/11 18:28:54;;;;;;;5.91;1.39;;;;;;;13.46;85.60;98728.50;2022305;80;20187;-69
2021/05/11 18:31:57;;;;;;;2.09;0.39;;;;;;;13.46;85.69;98727.66;2017669;78;20215;-70
2021/05/11 18:35:01;;;;;;;1.94;0.25;;;;;;;13.38;84.74;98727.03;2016286;80;20176;-70
2021/05/11 18:38:06;;;;;;;4.10;0.20;;;;;;;13.26;83.47;98723.81;2016944;80;20229;-71
2021/05/11 18:41:09;;;;;;;0.34;0.21;;;;;;;13.12;82.76;98733.75;2016540;80;20197;-71